createdAt,value
2018-11-02T00:01:25.197Z,101113.12
2018-11-02T00:03:53.718Z,101128.98
2018-11-02T00:06:22.130Z,101143.35
2018-11-02T00:08:50.275Z,101156.47
2018-11-02T00:11:19.484Z,101167.88
2018-11-02T00:13:47.765Z,101173.81
2018-11-02T00:16:15.948Z,101184.43
2018-11-02T00:18:44.101Z,101180.55
2018-11-02T00:21:12.257Z,101165.52
2018-11-02T00:23:40.499Z,101160.34
2018-11-02T00:26:08.684Z,101156.97
2018-11-02T00:28:36.792Z,101144.67
2018-11-02T00:31:05.206Z,101155.35
2018-11-02T00:33:33.371Z,101159.55
2018-11-02T00:36:01.502Z,101164.07
2018-11-02T00:38:29.640Z,101165.95
2018-11-02T00:40:57.789Z,101169.58
2018-11-02T00:43:25.896Z,101167.97
2018-11-02T00:45:54.058Z,101160.54
2018-11-02T00:48:22.238Z,101159.82
2018-11-02T00:50:50.529Z,101155.04
2018-11-02T00:53:18.689Z,101149.14
2018-11-02T00:55:46.934Z,101149.55
2018-11-02T00:58:15.205Z,101152.21
2018-11-02T01:00:43.348Z,101154.23
2018-11-02T01:03:11.544Z,101153.83
2018-11-02T01:05:40.197Z,101170.86
2018-11-02T01:08:08.358Z,101164.89
2018-11-02T01:10:36.615Z,101174.09
2018-11-02T01:13:04.804Z,101172.55
2018-11-02T01:15:32.975Z,101175.07
2018-11-02T01:18:01.125Z,101178.47
2018-11-02T01:20:29.277Z,101172.75
2018-11-02T01:22:57.389Z,101172.95
2018-11-02T01:25:25.544Z,101156.17
2018-11-02T01:27:53.697Z,101154.22
2018-11-02T01:30:21.843Z,101176.68
2018-11-02T01:32:49.971Z,101197.77
2018-11-02T01:35:18.067Z,101210.61
2018-11-02T01:37:46.229Z,101216.91
2018-11-02T01:40:14.399Z,101210.56
2018-11-02T01:42:42.544Z,101213.37
2018-11-02T01:45:10.670Z,101213.69
2018-11-02T01:47:38.873Z,101219.47
2018-11-02T01:50:07.294Z,101226.59
2018-11-02T01:52:35.438Z,101217.73
2018-11-02T01:55:03.600Z,101201.53
2018-11-02T01:57:31.743Z,101206.13
2018-11-02T01:59:59.902Z,101216.31
2018-11-02T02:02:28.063Z,101224.78
2018-11-02T02:04:56.257Z,101224.47
2018-11-02T02:07:24.416Z,101226.39
2018-11-02T02:09:52.546Z,101235.18
2018-11-02T02:12:20.695Z,101229.61
2018-11-02T02:14:48.804Z,101230.58
2018-11-02T02:17:17.039Z,101229.19
2018-11-02T02:19:45.235Z,101233.27
2018-11-02T02:22:13.362Z,101226.70
2018-11-02T02:24:41.527Z,101236.22
2018-11-02T02:27:09.703Z,101236.63
2018-11-02T02:29:37.842Z,101239.06
2018-11-02T02:32:06.009Z,101234.98
2018-11-02T02:34:34.166Z,101234.88
2018-11-02T02:37:02.425Z,101241.84
2018-11-02T02:39:30.593Z,101249.34
2018-11-02T02:41:58.744Z,101252.24
2018-11-02T02:44:26.895Z,101259.47
2018-11-02T02:46:55.083Z,101262.36
2018-11-02T02:49:23.221Z,101276.42
2018-11-02T02:51:51.600Z,101280.92
2018-11-02T02:54:19.758Z,101277.13
2018-11-02T02:56:54.777Z,101272.02
2018-11-02T02:59:22.881Z,101274.34
2018-11-02T03:01:51.003Z,101273.32
2018-11-02T03:04:19.213Z,101272.44
2018-11-02T03:06:47.469Z,101280.09
2018-11-02T03:09:15.663Z,101284.39
2018-11-02T03:11:43.790Z,101288.44
2018-11-02T03:14:12.009Z,101296.08
2018-11-02T03:16:40.159Z,101292.14
2018-11-02T03:19:08.297Z,101295.52
2018-11-02T03:21:36.432Z,101285.38
2018-11-02T03:24:04.567Z,101280.95
2018-11-02T03:26:32.731Z,101291.22
2018-11-02T03:29:00.871Z,101295.25
2018-11-02T03:31:29.025Z,101304.20
2018-11-02T03:33:57.181Z,101300.53
2018-11-02T03:36:25.361Z,101298.70
2018-11-02T03:38:53.529Z,101289.11
2018-11-02T03:41:21.644Z,101286.33
2018-11-02T03:43:50.007Z,101293.44
2018-11-02T03:46:18.220Z,101292.14
2018-11-02T03:48:46.391Z,101298.97
2018-11-02T03:51:14.469Z,101301.42
2018-11-02T03:53:42.570Z,101307.91
2018-11-02T03:56:10.713Z,101303.39
2018-11-02T03:58:38.900Z,101309.31
2018-11-02T04:01:07.229Z,101312.47
2018-11-02T04:03:35.377Z,101313.80
2018-11-02T04:06:03.480Z,101315.36
2018-11-02T04:08:31.683Z,101316.10
2018-11-02T04:10:59.776Z,101320.48
2018-11-02T04:13:27.983Z,101325.82
2018-11-02T04:15:56.084Z,101325.20
2018-11-02T04:18:24.200Z,101333.63
2018-11-02T04:20:52.304Z,101331.36
2018-11-02T04:23:20.473Z,101327.55
2018-11-02T04:25:48.669Z,101326.47
2018-11-02T04:28:19.767Z,101327.99
2018-11-02T04:30:47.933Z,101338.42
2018-11-02T04:33:16.021Z,101349.58
2018-11-02T04:35:44.144Z,101348.99
2018-11-02T04:38:12.496Z,101351.75
2018-11-02T04:40:40.625Z,101345.22
2018-11-02T04:43:08.768Z,101343.11
2018-11-02T04:45:39.906Z,101348.11
2018-11-02T04:48:09.781Z,101361.09
2018-11-02T04:50:38.204Z,101368.29
2018-11-02T04:53:06.539Z,101371.28
2018-11-02T04:55:34.867Z,101369.48
2018-11-02T04:58:02.992Z,101363.88
2018-11-02T05:00:31.504Z,101362.18
2018-11-02T05:06:13.828Z,101392.48
2018-11-02T05:08:42.272Z,101387.73
2018-11-02T05:11:10.416Z,101385.90
2018-11-02T05:13:38.484Z,101380.47
2018-11-02T05:16:06.956Z,101379.34
2018-11-02T05:18:35.219Z,101370.64
2018-11-02T05:21:03.416Z,101373.67
2018-11-02T05:23:31.479Z,101390.72
2018-11-02T05:25:59.768Z,101400.20
2018-11-02T05:28:27.897Z,101405.15
2018-11-02T05:30:56.014Z,101410.09
2018-11-02T05:33:24.316Z,101408.56
2018-11-02T05:35:52.428Z,101408.43
2018-11-02T05:38:20.561Z,101410.64
2018-11-02T05:40:48.720Z,101421.07
2018-11-02T05:43:16.872Z,101427.22
2018-11-02T05:45:44.988Z,101440.00
2018-11-02T05:48:13.284Z,101441.09
2018-11-02T05:50:41.374Z,101441.38
2018-11-02T05:53:09.562Z,101433.45
2018-11-02T05:55:37.712Z,101435.95
2018-11-02T05:58:05.868Z,101446.67
2018-11-02T06:00:34.030Z,101452.92
2018-11-02T06:03:02.148Z,101452.98
2018-11-02T06:05:30.402Z,101463.16
2018-11-02T06:07:58.674Z,101457.31
2018-11-02T06:10:26.784Z,101459.53
2018-11-02T06:12:54.920Z,101460.22
2018-11-02T06:15:23.052Z,101454.19
2018-11-02T06:17:51.181Z,101453.71
2018-11-02T06:20:19.310Z,101459.76
2018-11-02T06:22:47.484Z,101465.95
2018-11-02T06:25:15.629Z,101472.16
2018-11-02T06:27:43.793Z,101483.77
2018-11-02T06:30:11.938Z,101492.78
2018-11-02T06:32:40.169Z,101496.38
2018-11-02T06:35:08.712Z,101498.53
2018-11-02T06:37:36.859Z,101499.11
2018-11-02T06:40:05.108Z,101509.75
2018-11-02T06:42:33.344Z,101519.80
2018-11-02T06:45:01.663Z,101523.50
2018-11-02T06:47:29.789Z,101523.20
2018-11-02T06:49:57.934Z,101521.02
2018-11-02T06:52:26.113Z,101527.92
2018-11-02T06:54:54.596Z,101537.26
2018-11-02T06:57:22.722Z,101541.07
2018-11-02T06:59:51.001Z,101557.46
2018-11-02T07:02:19.003Z,101558.45
2018-11-02T07:04:47.130Z,101559.89
2018-11-02T07:07:15.429Z,101562.68
2018-11-02T07:09:43.437Z,101548.84
2018-11-02T07:12:11.643Z,101555.59
2018-11-02T07:14:39.800Z,101556.17
2018-11-02T07:17:07.969Z,101558.13
2018-11-02T07:19:36.178Z,101556.38
2018-11-02T07:22:04.428Z,101557.67
2018-11-02T07:24:32.565Z,101560.80
2018-11-02T07:27:00.691Z,101562.09
2018-11-02T07:29:28.797Z,101570.06
2018-11-02T07:31:56.953Z,101573.09
2018-11-02T07:34:25.099Z,101573.50
2018-11-02T07:36:53.252Z,101581.05
2018-11-02T07:39:21.398Z,101590.06
2018-11-02T07:41:49.496Z,101591.81
2018-11-02T07:44:17.696Z,101594.50
2018-11-02T07:46:45.860Z,101586.83
2018-11-02T07:49:14.043Z,101593.46
2018-11-02T07:51:42.147Z,101608.80
2018-11-02T07:54:10.314Z,101611.78
2018-11-02T07:56:38.495Z,101613.84
2018-11-02T07:59:06.667Z,101618.64
2018-11-02T08:01:34.932Z,101622.69
2018-11-02T08:04:03.046Z,101633.25
2018-11-02T08:06:31.130Z,101635.64
2018-11-02T08:08:59.284Z,101639.46
2018-11-02T08:11:27.471Z,101642.38
2018-11-02T08:13:55.578Z,101644.72
2018-11-02T08:16:23.690Z,101646.02
2018-11-02T08:18:51.859Z,101644.30
2018-11-02T08:21:19.953Z,101649.33
2018-11-02T08:23:48.064Z,101651.70
2018-11-02T08:26:19.181Z,101648.09
2018-11-02T08:28:47.289Z,101654.17
2018-11-02T08:31:15.425Z,101652.64
2018-11-02T08:33:43.595Z,101654.37
2018-11-02T08:36:11.752Z,101643.99
2018-11-02T08:38:39.902Z,101657.68
2018-11-02T08:41:08.058Z,101664.11
2018-11-02T08:43:36.204Z,101665.63
2018-11-02T08:46:04.411Z,101667.75
2018-11-02T08:48:32.504Z,101673.60
2018-11-02T08:51:00.614Z,101672.12
2018-11-02T08:53:28.829Z,101674.08
2018-11-02T08:55:56.966Z,101674.97
2018-11-02T08:58:25.372Z,101672.94
2018-11-02T09:00:53.472Z,101673.84
2018-11-02T09:03:21.596Z,101677.80
2018-11-02T09:05:49.745Z,101671.43
2018-11-02T09:08:17.880Z,101672.13
2018-11-02T09:10:46.054Z,101672.72
2018-11-02T09:13:14.368Z,101669.73
2018-11-02T09:15:42.599Z,101676.80
2018-11-02T09:18:10.724Z,101679.79
2018-11-02T09:20:38.933Z,101685.98
2018-11-02T09:23:07.059Z,101686.19
2018-11-02T09:25:38.309Z,101696.94
2018-11-02T09:28:06.591Z,101697.86
2018-11-02T09:30:34.634Z,101709.37
2018-11-02T09:33:02.774Z,101714.08
2018-11-02T09:35:30.898Z,101711.30
2018-11-02T09:37:59.043Z,101723.94
2018-11-02T09:40:27.237Z,101731.50
2018-11-02T09:42:55.318Z,101717.69
2018-11-02T09:45:23.424Z,101735.28
2018-11-02T09:47:51.618Z,101737.34
2018-11-02T09:50:19.745Z,101730.95
2018-11-02T09:52:47.912Z,101719.11
2018-11-02T09:55:16.660Z,101725.53
2018-11-02T09:57:46.127Z,101720.39
2018-11-02T10:00:14.814Z,101721.94
2018-11-02T10:02:43.167Z,101712.63
2018-11-02T10:05:12.352Z,101702.61
2018-11-02T10:07:41.710Z,101713.62
2018-11-02T10:10:11.312Z,101710.10
2018-11-02T10:12:39.538Z,101717.31
2018-11-02T10:15:10.374Z,101720.58
2018-11-02T10:17:38.528Z,101715.14
2018-11-02T10:20:07.304Z,101707.08
2018-11-02T10:22:35.509Z,101720.23
2018-11-02T10:25:03.813Z,101728.25
2018-11-02T10:27:32.012Z,101726.59
2018-11-02T10:30:00.212Z,101721.31
2018-11-02T10:32:28.328Z,101719.95
2018-11-02T10:34:56.455Z,101723.41
2018-11-02T10:37:24.579Z,101721.48
2018-11-02T10:39:52.797Z,101728.00
2018-11-02T10:42:20.974Z,101725.27
2018-11-02T10:44:49.251Z,101723.85
2018-11-02T10:47:17.431Z,101735.30
2018-11-02T10:49:45.622Z,101746.41
2018-11-02T10:52:13.785Z,101748.55
2018-11-02T10:54:41.962Z,101742.50
2018-11-02T10:57:10.110Z,101751.77
2018-11-02T10:59:38.241Z,101751.95
2018-11-02T11:02:08.510Z,101759.77
2018-11-02T11:04:37.487Z,101761.58
2018-11-02T11:07:06.185Z,101763.89
2018-11-02T11:09:34.362Z,101763.77
2018-11-02T11:12:02.576Z,101769.94
2018-11-02T11:14:31.101Z,101767.26
2018-11-02T11:16:59.302Z,101762.68
2018-11-02T11:19:27.551Z,101767.89
2018-11-02T11:21:55.770Z,101770.13
2018-11-02T11:24:23.934Z,101782.81
2018-11-02T11:26:52.088Z,101778.65
2018-11-02T11:29:20.387Z,101778.56
2018-11-02T11:31:48.445Z,101767.67
2018-11-02T11:34:16.633Z,101782.08
2018-11-02T11:36:44.816Z,101785.69
2018-11-02T11:39:14.008Z,101781.18
2018-11-02T11:41:42.184Z,101780.00
2018-11-02T11:44:10.883Z,101777.72
2018-11-02T11:46:39.172Z,101773.64
2018-11-02T11:49:08.313Z,101776.05
2018-11-02T11:51:36.437Z,101779.35
2018-11-02T11:54:04.700Z,101800.84
2018-11-02T11:56:32.998Z,101793.75
2018-11-02T11:59:01.367Z,101789.19
2018-11-02T12:01:29.508Z,101798.12
2018-11-02T12:03:57.735Z,101793.37
2018-11-02T12:06:25.992Z,101793.17
2018-11-02T12:08:54.174Z,101793.44
2018-11-02T12:11:22.326Z,101787.73
2018-11-02T12:13:50.504Z,101785.66
2018-11-02T12:16:18.685Z,101795.17
2018-11-02T12:18:53.687Z,101800.47
2018-11-02T12:21:21.886Z,101802.87
2018-11-02T12:23:50.077Z,101808.29
2018-11-02T12:26:18.249Z,101806.87
2018-11-02T12:28:46.515Z,101803.57
2018-11-02T12:31:14.629Z,101802.87
2018-11-02T12:33:42.770Z,101793.75
2018-11-02T12:36:10.943Z,101791.27
2018-11-02T12:38:39.166Z,101792.91
2018-11-02T12:41:07.299Z,101786.96
2018-11-02T12:43:35.646Z,101788.08
2018-11-02T12:46:03.720Z,101797.09
2018-11-02T12:48:31.985Z,101794.44
2018-11-02T12:51:00.074Z,101793.59
2018-11-02T12:53:28.252Z,101804.13
2018-11-02T12:55:56.492Z,101796.77
2018-11-02T12:58:24.724Z,101802.34
2018-11-02T13:00:52.891Z,101808.09
2018-11-02T13:03:21.063Z,101812.66
2018-11-02T13:05:49.219Z,101818.90
2018-11-02T13:08:17.413Z,101819.10
2018-11-02T13:10:45.589Z,101817.98
2018-11-02T13:13:13.750Z,101806.95
2018-11-02T13:15:42.008Z,101814.53
2018-11-02T13:18:10.120Z,101816.78
2018-11-02T13:20:38.301Z,101822.59
2018-11-02T13:23:06.486Z,101827.36
2018-11-02T13:25:34.637Z,101826.05
2018-11-02T13:28:02.851Z,101822.88
2018-11-02T13:30:31.144Z,101825.26
2018-11-02T13:32:59.233Z,101830.30
2018-11-02T13:35:27.373Z,101835.37
2018-11-02T13:37:55.546Z,101844.78
2018-11-02T13:40:23.720Z,101851.41
2018-11-02T13:42:51.882Z,101855.33
2018-11-02T13:45:20.261Z,101862.02
2018-11-02T13:47:48.525Z,101859.17
2018-11-02T13:50:16.822Z,101869.74
2018-11-02T13:52:45.275Z,101871.34
2018-11-02T13:55:13.869Z,101862.80
2018-11-02T13:57:42.098Z,101867.61
2018-11-02T14:00:12.362Z,101860.37
2018-11-02T14:02:40.520Z,101851.82
2018-11-02T14:05:09.875Z,101845.57
2018-11-02T14:07:38.029Z,101846.54
2018-11-02T14:10:06.806Z,101854.63
2018-11-02T14:12:34.984Z,101854.25
2018-11-02T14:15:03.219Z,101852.77
2018-11-02T14:17:31.378Z,101841.33
2018-11-02T14:19:59.550Z,101841.83
2018-11-02T14:22:27.755Z,101842.86
2018-11-02T14:24:55.989Z,101871.17
2018-11-02T14:27:24.204Z,101875.64
2018-11-02T14:29:52.417Z,101889.52
2018-11-02T14:32:20.663Z,101888.20
2018-11-02T14:34:48.803Z,101878.33
2018-11-02T14:37:17.021Z,101889.03
2018-11-02T14:39:45.208Z,101884.91
2018-11-02T14:42:13.437Z,101889.59
2018-11-02T14:44:41.665Z,101887.11
2018-11-02T14:47:09.829Z,101885.89
2018-11-02T14:49:38.091Z,101888.96
2018-11-02T14:52:06.431Z,101889.46
2018-11-02T14:54:34.619Z,101889.68
2018-11-02T14:57:02.862Z,101897.08
2018-11-02T14:59:31.175Z,101903.11
2018-11-02T15:01:59.384Z,101899.08
2018-11-02T15:04:27.520Z,101914.63
2018-11-02T15:06:55.781Z,101912.91
2018-11-02T15:09:24.035Z,101917.70
2018-11-02T15:11:52.201Z,101915.92
2018-11-02T15:14:20.364Z,101912.02
2018-11-02T15:16:48.536Z,101924.77
2018-11-02T15:19:16.721Z,101935.37
2018-11-02T15:21:51.299Z,101930.62
2018-11-02T15:24:19.491Z,101930.96
2018-11-02T15:26:47.631Z,101937.92
2018-11-02T15:29:15.840Z,101941.05
2018-11-02T15:31:43.985Z,101944.31
2018-11-02T15:34:12.169Z,101942.66
2018-11-02T15:36:40.452Z,101941.13
2018-11-02T15:39:10.582Z,101946.48
2018-11-02T15:41:38.875Z,101971.92
2018-11-02T15:44:07.196Z,101967.75
2018-11-02T15:46:35.643Z,101968.41
2018-11-02T15:49:03.840Z,101973.30
2018-11-02T15:51:31.999Z,101990.22
2018-11-02T15:54:00.278Z,101997.42
2018-11-02T15:56:28.518Z,101997.83
2018-11-02T15:58:56.789Z,101997.13
2018-11-02T16:01:25.230Z,101998.38
2018-11-02T16:03:53.474Z,101995.20
2018-11-02T16:06:21.648Z,101987.05
2018-11-02T16:08:49.916Z,101980.17
2018-11-02T16:11:18.136Z,101979.94
2018-11-02T16:13:46.576Z,101976.87
2018-11-02T16:16:14.713Z,101976.92
2018-11-02T16:18:43.090Z,101976.45
2018-11-02T16:21:11.335Z,101972.78
2018-11-02T16:23:39.501Z,101978.91
2018-11-02T16:26:08.065Z,101982.37
2018-11-02T16:28:36.248Z,101995.36
2018-11-02T16:31:04.571Z,101999.26
2018-11-02T16:33:32.769Z,101998.31
2018-11-02T16:36:00.924Z,101994.47
2018-11-02T16:38:29.185Z,101994.80
2018-11-02T16:40:57.355Z,102004.16
2018-11-02T16:43:25.656Z,102004.39
2018-11-02T16:45:53.885Z,102019.25
2018-11-02T16:48:22.035Z,102021.62
2018-11-02T16:50:50.180Z,102025.31
2018-11-02T16:53:18.434Z,102028.78
2018-11-02T16:55:46.705Z,102037.16
2018-11-02T16:58:14.979Z,102044.95
2018-11-02T17:00:43.127Z,102049.05
2018-11-02T17:03:11.258Z,102057.77
2018-11-02T17:05:39.492Z,102066.04
2018-11-02T17:08:07.740Z,102073.17
2018-11-02T17:10:36.011Z,102075.58
2018-11-02T17:13:04.475Z,102081.66
2018-11-02T17:15:32.729Z,102082.64
2018-11-02T17:18:00.965Z,102089.70
2018-11-02T17:20:29.197Z,102090.22
2018-11-02T17:22:57.419Z,102092.88
2018-11-02T17:25:25.654Z,102097.25
2018-11-02T17:27:53.874Z,102103.27
2018-11-02T17:30:22.053Z,102102.30
2018-11-02T17:32:50.640Z,102109.05
2018-11-02T17:35:18.883Z,102107.89
2018-11-02T17:37:47.081Z,102103.45
2018-11-02T17:40:15.912Z,102101.11
2018-11-02T17:42:44.653Z,102119.60
2018-11-02T17:45:12.929Z,102117.21
2018-11-02T17:47:42.104Z,102122.92
2018-11-02T17:50:11.454Z,102135.15
2018-11-02T17:52:39.691Z,102141.86
2018-11-02T17:55:07.951Z,102146.36
2018-11-02T17:57:36.123Z,102148.98
2018-11-02T18:00:04.824Z,102154.07
2018-11-02T18:02:35.582Z,102154.56
2018-11-02T18:05:03.848Z,102147.72
2018-11-02T18:07:32.077Z,102149.43
2018-11-02T18:10:01.290Z,102155.89
2018-11-02T18:12:29.493Z,102148.67
2018-11-02T18:14:57.767Z,102154.01
2018-11-02T18:17:25.930Z,102154.18
2018-11-02T18:19:54.129Z,102150.32
2018-11-02T18:22:22.394Z,102148.81
2018-11-02T18:24:50.557Z,102156.44
2018-11-02T18:27:18.738Z,102176.00
2018-11-02T18:29:46.951Z,102179.58
2018-11-02T18:32:15.184Z,102173.00
2018-11-02T18:34:43.536Z,102161.73
2018-11-02T18:37:11.747Z,102175.50
2018-11-02T18:39:40.032Z,102177.75
2018-11-02T18:42:08.493Z,102182.20
2018-11-02T18:44:36.662Z,102192.03
2018-11-02T18:47:06.308Z,102198.66
2018-11-02T18:49:34.741Z,102202.45
2018-11-02T18:52:03.376Z,102202.45
2018-11-02T18:54:32.015Z,102208.78
2018-11-02T18:57:00.360Z,102211.73
2018-11-02T18:59:28.617Z,102217.52
2018-11-02T19:01:57.304Z,102224.91
2018-11-02T19:04:25.716Z,102235.48
2018-11-02T19:06:54.160Z,102229.02
2018-11-02T19:09:22.428Z,102223.87
2018-11-02T19:11:54.975Z,102225.16
2018-11-02T19:14:23.353Z,102228.60
2018-11-02T19:16:51.971Z,102231.52
2018-11-02T19:19:20.376Z,102238.80
2018-11-02T19:21:48.996Z,102244.22
2018-11-02T19:24:17.224Z,102244.56
2018-11-02T19:26:45.727Z,102257.72
2018-11-02T19:29:14.232Z,102260.20
2018-11-02T19:31:42.655Z,102261.48
2018-11-02T19:34:15.346Z,102264.19
2018-11-02T19:36:43.541Z,102267.08
2018-11-02T19:39:12.064Z,102271.57
2018-11-02T19:41:40.383Z,102283.77
2018-11-02T19:44:08.591Z,102280.45
2018-11-02T19:46:36.898Z,102272.05
2018-11-02T19:49:05.459Z,102292.14
2018-11-02T19:51:34.315Z,102295.68
2018-11-02T19:54:02.655Z,102301.67
2018-11-02T19:56:30.944Z,102293.16
2018-11-02T19:58:59.211Z,102301.81
2018-11-02T20:01:27.482Z,102300.80
2018-11-02T20:03:55.965Z,102300.66
2018-11-02T20:06:24.256Z,102305.44
2018-11-02T20:08:52.572Z,102314.13
2018-11-02T20:11:20.816Z,102322.21
2018-11-02T20:13:49.415Z,102327.80
2018-11-02T20:16:17.660Z,102315.52
2018-11-02T20:18:45.881Z,102315.70
2018-11-02T20:21:14.109Z,102309.30
2018-11-02T20:23:42.292Z,102300.22
2018-11-02T20:26:10.517Z,102300.84
2018-11-02T20:28:38.772Z,102302.16
2018-11-02T20:31:06.992Z,102304.05
2018-11-02T20:33:35.185Z,102302.88
2018-11-02T20:36:03.383Z,102309.11
2018-11-02T20:38:31.622Z,102313.20
2018-11-02T20:40:59.907Z,102313.56
2018-11-02T20:43:28.127Z,102322.16
2018-11-02T20:45:56.345Z,102318.34
2018-11-02T20:48:24.564Z,102331.70
2018-11-02T20:50:52.796Z,102339.78
2018-11-02T20:53:21.160Z,102334.17
2018-11-02T20:55:49.395Z,102335.08
2018-11-02T20:58:17.689Z,102335.83
2018-11-02T21:00:45.902Z,102337.42
2018-11-02T21:03:14.118Z,102338.20
2018-11-02T21:05:42.441Z,102339.84
2018-11-02T21:08:10.779Z,102344.73
2018-11-02T21:10:38.830Z,102339.42
2018-11-02T21:13:07.045Z,102339.83
2018-11-02T21:15:35.193Z,102345.91
2018-11-02T21:18:03.350Z,102342.31
2018-11-02T21:20:31.612Z,102342.70
2018-11-02T21:22:59.790Z,102350.61
2018-11-02T21:25:27.977Z,102352.20
2018-11-02T21:27:56.166Z,102347.02
2018-11-02T21:30:25.536Z,102352.48
2018-11-02T21:32:54.385Z,102354.30
2018-11-02T21:35:23.111Z,102366.16
2018-11-02T21:37:51.385Z,102366.45
2018-11-02T21:40:20.855Z,102369.14
2018-11-02T21:42:49.847Z,102370.73
2018-11-02T21:45:19.377Z,102370.06
2018-11-02T21:47:47.786Z,102368.87
2018-11-02T21:50:16.474Z,102364.77
2018-11-02T21:52:44.629Z,102367.57
2018-11-02T21:55:13.193Z,102360.68
2018-11-02T21:57:41.400Z,102369.56
2018-11-02T22:00:11.922Z,102384.17
2018-11-02T22:02:40.202Z,102395.41
2018-11-02T22:05:09.599Z,102407.59
2018-11-02T22:07:37.746Z,102398.14
2018-11-02T22:10:07.227Z,102388.88
2018-11-02T22:12:35.447Z,102391.91
2018-11-02T22:15:03.724Z,102389.92
2018-11-02T22:17:31.953Z,102395.29
2018-11-02T22:20:00.181Z,102394.11
2018-11-02T22:22:28.418Z,102387.81
2018-11-02T22:24:56.734Z,102392.48
2018-11-02T22:27:24.912Z,102389.90
2018-11-02T22:29:53.079Z,102394.21
2018-11-02T22:32:21.243Z,102394.80
2018-11-02T22:34:49.406Z,102396.10
2018-11-02T22:37:17.624Z,102399.89
2018-11-02T22:39:45.875Z,102404.86
2018-11-02T22:42:14.979Z,102403.48
2018-11-02T22:44:43.257Z,102400.30
2018-11-02T22:47:11.621Z,102400.08
2018-11-02T22:49:39.753Z,102402.59
2018-11-02T22:52:07.935Z,102409.86
2018-11-02T22:54:36.077Z,102404.16
2018-11-02T22:57:04.249Z,102413.75
2018-11-02T22:59:32.387Z,102408.45
2018-11-02T23:02:01.319Z,102402.95
2018-11-02T23:04:29.583Z,102403.95
2018-11-02T23:06:57.789Z,102414.22
2018-11-02T23:09:25.983Z,102406.41
2018-11-02T23:11:54.219Z,102408.89
2018-11-02T23:14:22.370Z,102401.01
2018-11-02T23:16:50.579Z,102399.05
2018-11-02T23:19:18.855Z,102397.62
2018-11-02T23:21:46.956Z,102382.33
2018-11-02T23:24:15.378Z,102382.22
2018-11-02T23:26:43.562Z,102384.03
2018-11-02T23:29:11.747Z,102378.84
2018-11-02T23:31:39.975Z,102374.73
2018-11-02T23:34:08.209Z,102373.86
2018-11-02T23:36:36.417Z,102380.88
2018-11-02T23:39:06.110Z,102377.39
2018-11-02T23:41:34.385Z,102376.03
2018-11-02T23:44:02.561Z,102382.52
2018-11-02T23:46:30.759Z,102376.33
2018-11-02T23:48:58.918Z,102380.14
2018-11-02T23:51:27.099Z,102385.73
2018-11-02T23:53:55.415Z,102385.73
2018-11-02T23:56:23.581Z,102382.17
2018-11-02T23:58:51.770Z,102381.48
